Time;durP1;ratioP1;P1;durP2;ratioP2;P2;SDS_P1;SDS_P2;PMS_P1;PMS_P2;Temp;Humidity;BMP_temperature;BMP_pressure;BME280_temperature;BME280_humidity;BME280_pressure;Samples;Min_cycle;Max_cycle;Signal;HPM_P1;HPM_P2
2023/06/21 00:00:12;;;;;;;52.80;35.55;;;18.60;99.90;;;;;;5022266;28;20049;-77
2023/06/21 00:02:41;;;;;;;56.45;36.30;;;18.60;99.90;;;;;;5046638;28;20116;-76
2023/06/21 00:05:08;;;;;;;44.30;34.40;;;18.60;99.90;;;;;;5031423;28;20048;-77
2023/06/21 00:07:34;;;;;;;39.70;33.17;;;18.50;99.90;;;;;;5043196;28;20134;-78
2023/06/21 00:10:01;;;;;;;36.42;32.45;;;18.50;99.90;;;;;;5042631;28;20052;-79
2023/06/21 00:12:28;;;;;;;45.25;35.55;;;18.60;99.90;;;;;;5037967;28;20063;-78
2023/06/21 00:14:54;;;;;;;36.25;31.85;;;18.60;99.90;;;;;;5026323;28;20126;-78
2023/06/21 00:17:19;;;;;;;37.50;31.48;;;18.60;99.90;;;;;;5022532;28;20061;-78
2023/06/21 00:19:47;;;;;;;37.50;31.08;;;18.60;99.90;;;;;;5018203;28;20049;-78
2023/06/21 00:22:21;;;;;;;38.08;30.70;;;18.70;99.90;;;;;;5020756;28;20061;-76
2023/06/21 00:24:52;;;;;;;40.00;32.80;;;18.60;99.90;;;;;;5027794;28;20163;-76
2023/06/21 00:27:18;;;;;;;35.30;29.83;;;18.70;99.90;;;;;;5037397;28;20053;-77
2023/06/21 00:29:44;;;;;;;35.72;29.48;;;18.70;99.90;;;;;;5023931;28;20064;-78
2023/06/21 00:32:11;;;;;;;47.78;33.35;;;18.60;99.90;;;;;;5041657;28;20049;-77
2023/06/21 00:34:41;;;;;;;51.90;33.33;;;18.60;99.90;;;;;;5043812;28;20132;-76
2023/06/21 00:37:07;;;;;;;45.25;32.15;;;18.60;99.90;;;;;;5041101;28;20895;-77
2023/06/21 00:39:32;;;;;;;47.63;32.72;;;18.60;99.90;;;;;;5022100;28;20044;-77
2023/06/21 00:41:58;;;;;;;48.53;32.60;;;18.50;99.90;;;;;;5033890;28;20088;-77
2023/06/21 00:44:24;;;;;;;40.58;29.90;;;18.50;99.90;;;;;;5025112;28;20144;-76
2023/06/21 00:46:50;;;;;;;40.05;30.05;;;18.50;99.90;;;;;;5024922;28;20107;-78
2023/06/21 00:49:16;;;;;;;47.97;31.65;;;18.50;99.90;;;;;;5041271;28;20135;-76
2023/06/21 00:51:42;;;;;;;50.55;32.17;;;18.50;99.90;;;;;;5025868;28;20410;-77
2023/06/21 00:54:16;;;;;;;49.13;31.58;;;18.50;99.90;;;;;;5025903;28;20138;-77
2023/06/21 00:56:45;;;;;;;44.42;30.15;;;18.50;99.90;;;;;;5041921;28;20076;-78
2023/06/21 00:59:11;;;;;;;39.78;29.55;;;18.50;99.90;;;;;;5021166;28;20462;-77
2023/06/21 01:01:38;;;;;;;42.80;29.70;;;18.40;99.90;;;;;;5018522;28;20110;-77
2023/06/21 01:04:09;;;;;;;42.00;30.02;;;18.50;99.90;;;;;;5024642;28;21163;-77
2023/06/21 01:06:52;;;;;;;34.97;26.42;;;18.50;99.90;;;;;;5017560;28;20067;-77
2023/06/21 01:09:45;;;;;;;49.35;30.75;;;18.50;99.90;;;;;;5019514;28;20069;-77
2023/06/21 01:12:19;;;;;;;44.58;29.27;;;18.40;99.90;;;;;;5034349;28;20060;-78
2023/06/21 01:15:02;;;;;;;40.85;28.75;;;18.40;99.90;;;;;;5015433;28;20459;-78
2023/06/21 01:17:40;;;;;;;61.60;30.95;;;18.40;99.90;;;;;;5019377;28;20585;-78
2023/06/21 01:20:13;;;;;;;39.42;27.63;;;18.40;99.90;;;;;;5018311;28;20388;-77
2023/06/21 01:23:09;;;;;;;48.88;29.83;;;18.30;99.90;;;;;;5035171;28;20057;-77
2023/06/21 01:25:50;;;;;;;39.80;28.05;;;18.40;99.90;;;;;;5021181;28;20056;-77
2023/06/21 01:28:58;;;;;;;34.60;26.08;;;18.40;99.90;;;;;;5024010;28;20498;-77
2023/06/21 01:31:25;;;;;;;49.92;28.20;;;18.30;99.90;;;;;;5005260;28;20103;-79
2023/06/21 01:33:52;;;;;;;36.42;25.60;;;18.30;99.90;;;;;;5039393;28;20127;-76
2023/06/21 01:36:18;;;;;;;35.33;25.73;;;18.30;99.90;;;;;;5034845;28;20045;-77
2023/06/21 01:38:44;;;;;;;37.88;26.38;;;18.20;99.90;;;;;;5008927;28;20053;-77
2023/06/21 01:41:12;;;;;;;36.33;27.10;;;18.20;99.90;;;;;;5028759;28;20057;-76
2023/06/21 01:43:38;;;;;;;38.90;26.85;;;18.20;99.90;;;;;;5038945;28;20103;-77
2023/06/21 01:46:06;;;;;;;45.83;26.77;;;18.20;99.90;;;;;;5019903;28;20052;-76
2023/06/21 01:48:34;;;;;;;38.97;26.40;;;18.20;99.90;;;;;;5040830;28;20115;-77
2023/06/21 01:51:03;;;;;;;41.70;27.48;;;18.20;99.90;;;;;;5021544;28;20056;-76
2023/06/21 01:53:32;;;;;;;39.40;27.98;;;18.10;99.90;;;;;;5037244;28;20623;-77
2023/06/21 01:55:59;;;;;;;38.45;28.67;;;18.10;99.90;;;;;;5022650;28;20464;-77
2023/06/21 01:58:25;;;;;;;44.22;28.25;;;18.10;99.90;;;;;;5033737;28;20053;-77
2023/06/21 02:00:52;;;;;;;37.25;28.42;;;18.10;99.90;;;;;;5040357;28;20056;-76
2023/06/21 02:03:21;;;;;;;36.53;26.15;;;18.00;99.90;;;;;;5034916;28;20092;-77
2023/06/21 02:05:48;;;;;;;38.22;28.42;;;18.00;99.90;;;;;;5022069;28;20053;-77
2023/06/21 02:08:18;;;;;;;39.08;28.27;;;18.00;99.90;;;;;;5019748;28;20122;-77
2023/06/21 02:10:47;;;;;;;40.83;26.85;;;18.00;99.90;;;;;;5038300;28;20057;-77
2023/06/21 02:13:14;;;;;;;40.35;29.88;;;18.00;99.90;;;;;;5033898;28;20052;-76
2023/06/21 02:15:43;;;;;;;44.28;30.88;;;18.00;99.90;;;;;;5018910;28;20068;-77
2023/06/21 02:18:09;;;;;;;57.53;30.23;;;17.90;99.90;;;;;;5019847;28;20613;-76
2023/06/21 02:20:37;;;;;;;46.35;31.70;;;17.90;99.90;;;;;;5035430;28;20131;-75
2023/06/21 02:23:03;;;;;;;58.55;31.90;;;17.90;99.90;;;;;;5022436;28;20071;-78
2023/06/21 02:25:29;;;;;;;43.45;30.15;;;17.80;99.90;;;;;;5038682;28;20045;-79
2023/06/21 02:27:54;;;;;;;43.35;29.45;;;17.70;99.90;;;;;;5016727;28;20338;-77
2023/06/21 02:30:20;;;;;;;46.53;33.95;;;17.70;99.90;;;;;;5038867;28;20146;-79
2023/06/21 02:32:46;;;;;;;46.92;33.88;;;17.70;99.90;;;;;;5015911;28;20068;-77
2023/06/21 02:35:12;;;;;;;49.70;34.78;;;17.70;99.90;;;;;;5020644;28;20049;-78
2023/06/21 02:37:38;;;;;;;52.15;36.03;;;17.80;99.90;;;;;;5022438;28;20057;-77
2023/06/21 02:40:09;;;;;;;41.83;31.23;;;17.80;99.90;;;;;;5021925;28;20057;-78
2023/06/21 02:42:35;;;;;;;;;;;17.90;99.90;;;;;;5038412;28;20099;-78
2023/06/21 02:45:01;;;;;;;68.60;38.33;;;17.90;99.90;;;;;;5021326;28;20008;-80
2023/06/21 02:47:27;;;;;;;46.80;36.15;;;17.90;99.90;;;;;;5035353;28;20128;-76
2023/06/21 02:49:53;;;;;;;53.80;38.92;;;18.00;99.90;;;;;;5038666;28;20091;-78
2023/06/21 02:52:20;;;;;;;53.10;37.10;;;18.00;99.90;;;;;;5039923;28;20068;-80
2023/06/21 02:54:47;;;;;;;61.08;39.90;;;18.00;99.90;;;;;;5022985;28;20136;-80
2023/06/21 02:57:12;;;;;;;55.45;38.40;;;18.00;99.90;;;;;;5034628;28;21085;-83
2023/06/21 02:59:38;;;;;;;63.67;42.70;;;18.00;99.90;;;;;;5037692;28;20127;-78
2023/06/21 03:02:04;;;;;;;55.03;40.95;;;18.10;99.90;;;;;;5032869;28;20692;-76
2023/06/21 03:04:30;;;;;;;51.75;39.05;;;18.10;99.90;;;;;;5037046;28;20111;-80
2023/06/21 03:06:57;;;;;;;55.25;40.50;;;18.10;99.90;;;;;;5024425;28;20057;-79
2023/06/21 03:09:23;;;;;;;59.65;43.40;;;18.20;99.90;;;;;;5021899;28;20061;-79
2023/06/21 03:11:49;;;;;;;64.22;45.65;;;18.20;99.90;;;;;;5062554;28;20057;-79
2023/06/21 03:14:15;;;;;;;63.03;45.08;;;18.20;99.90;;;;;;5041776;28;20561;-77
2023/06/21 03:16:41;;;;;;;59.63;43.97;;;18.20;99.90;;;;;;5024092;28;20075;-80
2023/06/21 03:19:08;;;;;;;61.40;45.17;;;18.20;99.90;;;;;;5039682;28;20949;-78
2023/06/21 03:21:34;;;;;;;64.03;44.47;;;18.30;99.90;;;;;;5026015;28;20055;-79
2023/06/21 03:24:01;;;;;;;61.25;46.10;;;18.30;99.90;;;;;;5019690;28;20068;-78
2023/06/21 03:26:27;;;;;;;63.92;46.20;;;18.30;99.90;;;;;;5039987;28;20057;-76
2023/06/21 03:28:54;;;;;;;68.88;48.50;;;18.30;99.90;;;;;;5025521;28;20071;-78
2023/06/21 03:31:20;;;;;;;75.65;51.13;;;18.30;99.90;;;;;;5025748;28;20055;-80
2023/06/21 03:33:46;;;;;;;67.93;47.47;;;18.30;99.90;;;;;;5040646;28;20059;-82
2023/06/21 03:36:12;;;;;;;67.07;48.42;;;18.30;99.90;;;;;;5026173;28;20449;-77
2023/06/21 03:38:38;;;;;;;71.25;48.38;;;18.30;99.90;;;;;;5022901;28;20060;-80
2023/06/21 03:41:04;;;;;;;67.05;47.13;;;18.30;99.90;;;;;;5042107;28;20053;-80
2023/06/21 03:43:30;;;;;;;62.08;46.88;;;18.30;99.90;;;;;;5038427;28;20049;-78
2023/06/21 03:45:57;;;;;;;63.92;45.58;;;18.30;99.90;;;;;;5037372;28;20056;-83
2023/06/21 03:48:22;;;;;;;62.33;46.13;;;18.30;99.90;;;;;;5019993;28;20065;-80
2023/06/21 03:50:49;;;;;;;76.03;46.63;;;18.30;99.90;;;;;;5025408;28;20067;-79
2023/06/21 03:53:14;;;;;;;71.55;47.58;;;18.30;99.90;;;;;;5022635;28;20057;-81
2023/06/21 03:55:43;;;;;;;66.20;46.13;;;18.30;99.90;;;;;;5037405;28;20052;-78
2023/06/21 03:58:10;;;;;;;71.05;48.17;;;18.30;99.90;;;;;;5041136;28;20068;-80
2023/06/21 04:00:36;;;;;;;58.88;43.55;;;18.30;99.90;;;;;;5024472;28;20053;-80
2023/06/21 04:03:01;;;;;;;63.40;45.10;;;18.30;99.90;;;;;;5021000;28;20045;-82
2023/06/21 04:05:31;;;;;;;68.88;47.95;;;18.20;99.90;;;;;;5041613;28;20106;-77
2023/06/21 04:07:58;;;;;;;59.88;45.30;;;18.20;99.90;;;;;;5023572;28;20061;-80
2023/06/21 04:10:25;;;;;;;72.97;50.20;;;18.20;99.90;;;;;;5042194;28;20140;-83
2023/06/21 04:12:50;;;;;;;64.72;45.45;;;18.30;99.90;;;;;;5021659;28;20221;-78
2023/06/21 04:15:16;;;;;;;61.67;45.33;;;18.30;99.90;;;;;;5024206;28;20059;-78
2023/06/21 04:17:43;;;;;;;60.97;44.70;;;18.30;99.90;;;;;;5021084;28;20135;-80
2023/06/21 04:20:10;;;;;;;70.80;47.72;;;18.40;99.90;;;;;;5023679;28;20107;-80
2023/06/21 04:22:38;;;;;;;66.53;48.35;;;18.40;99.90;;;;;;5034619;28;20636;-80
2023/06/21 04:25:04;;;;;;;72.60;48.47;;;18.40;99.90;;;;;;5023398;28;20041;-77
2023/06/21 04:27:30;;;;;;;71.10;47.55;;;18.50;99.90;;;;;;5034844;28;20103;-77
2023/06/21 04:29:55;;;;;;;57.72;45.15;;;18.60;99.90;;;;;;5022111;28;20134;-80
2023/06/21 04:32:21;;;;;;;61.38;45.47;;;18.70;99.90;;;;;;5040060;28;20041;-77
2023/06/21 04:34:48;;;;;;;58.13;45.25;;;18.80;99.90;;;;;;5038821;28;20542;-78
2023/06/21 04:37:14;;;;;;;63.75;45.60;;;18.90;99.90;;;;;;5037617;28;20049;-78
2023/06/21 04:39:40;;;;;;;56.25;43.80;;;19.10;99.90;;;;;;5023948;28;20049;-77
2023/06/21 04:42:07;;;;;;;52.70;42.42;;;19.30;99.90;;;;;;5037350;28;20059;-76
2023/06/21 04:44:33;;;;;;;60.05;44.45;;;19.50;99.90;;;;;;5037052;28;20164;-78
2023/06/21 04:47:01;;;;;;;50.25;41.22;;;19.50;99.90;;;;;;5040446;28;20557;-76
2023/06/21 04:49:28;;;;;;;46.40;41.33;;;19.60;99.90;;;;;;5036028;28;20084;-77
2023/06/21 04:51:58;;;;;;;46.45;40.17;;;19.60;99.90;;;;;;5040824;28;20064;-76
2023/06/21 04:54:29;;;;;;;47.20;39.92;;;19.70;99.90;;;;;;5034148;28;20083;-77
2023/06/21 04:57:03;;;;;;;48.70;40.15;;;19.70;99.90;;;;;;5028714;28;20578;-78
2023/06/21 04:59:32;;;;;;;50.35;40.88;;;19.70;99.90;;;;;;5034007;28;20063;-80
2023/06/21 05:02:02;;;;;;;46.25;39.58;;;19.80;99.90;;;;;;5025063;28;20049;-76
2023/06/21 05:04:29;;;;;;;43.92;37.80;;;19.80;99.90;;;;;;5024602;28;20448;-79
2023/06/21 05:06:56;;;;;;;46.38;40.42;;;19.70;99.90;;;;;;5039515;28;20048;-77
2023/06/21 05:09:22;;;;;;;42.45;37.95;;;19.70;99.90;;;;;;5045846;28;20060;-77
2023/06/21 05:11:48;;;;;;;41.97;37.38;;;19.70;99.90;;;;;;5036872;28;20396;-77
2023/06/21 05:14:14;;;;;;;45.08;40.17;;;19.80;99.90;;;;;;5040161;28;20443;-78
2023/06/21 05:16:41;;;;;;;43.03;38.05;;;19.90;99.90;;;;;;5048452;28;20612;-77
2023/06/21 05:19:07;;;;;;;43.63;37.72;;;19.90;99.90;;;;;;5047304;28;20784;-79
2023/06/21 05:21:33;;;;;;;44.25;37.60;;;19.90;99.90;;;;;;5023247;28;20169;-78
2023/06/21 05:23:59;;;;;;;41.33;36.40;;;20.00;99.90;;;;;;5020328;28;20131;-78
2023/06/21 05:26:24;;;;;;;42.17;37.30;;;20.00;99.90;;;;;;5026305;28;20530;-80
2023/06/21 05:28:50;;;;;;;43.00;37.08;;;20.20;99.90;;;;;;5038509;28;20049;-78
2023/06/21 05:31:16;;;;;;;41.50;36.90;;;20.20;99.90;;;;;;5040182;28;20777;-78
2023/06/21 05:33:42;;;;;;;44.03;37.63;;;20.20;99.90;;;;;;5038009;28;20084;-78
2023/06/21 05:36:15;;;;;;;40.13;34.85;;;20.20;99.90;;;;;;5026760;28;20042;-77
2023/06/21 05:38:46;;;;;;;38.15;33.03;;;20.40;99.90;;;;;;5030579;28;20067;-79
2023/06/21 05:41:12;;;;;;;38.63;34.53;;;20.50;99.90;;;;;;5032461;28;20052;-78
2023/06/21 05:43:41;;;;;;;36.85;32.95;;;20.60;99.90;;;;;;5044130;28;20053;-78
2023/06/21 05:46:09;;;;;;;35.90;31.83;;;20.90;99.90;;;;;;5021265;28;20102;-79
2023/06/21 05:48:35;;;;;;;35.65;31.60;;;21.50;99.90;;;;;;5015344;28;20049;-78
2023/06/21 05:51:01;;;;;;;35.22;31.73;;;21.80;99.90;;;;;;5038641;28;20048;-81
2023/06/21 05:53:27;;;;;;;37.50;33.28;;;22.10;99.90;;;;;;5039626;28;20048;-79
2023/06/21 05:55:54;;;;;;;31.90;28.63;;;23.00;99.90;;;;;;5042594;28;20064;-81
2023/06/21 05:58:20;;;;;;;34.95;31.35;;;24.10;99.90;;;;;;5040975;28;20063;-80
2023/06/21 06:00:46;;;;;;;32.67;29.15;;;24.60;99.90;;;;;;5041198;28;20456;-85
2023/06/21 06:03:13;;;;;;;32.80;29.50;;;25.30;99.90;;;;;;5041088;28;20128;-83
2023/06/21 06:05:40;;;;;;;31.48;28.23;;;26.20;99.90;;;;;;5024560;28;20049;-81
2023/06/21 06:08:06;;;;;;;31.83;28.63;;;27.20;97.90;;;;;;5025187;28;20061;-81
2023/06/21 06:10:31;;;;;;;29.85;26.75;;;27.40;97.00;;;;;;5026402;28;20056;-82
2023/06/21 06:12:57;;;;;;;29.52;26.48;;;28.10;96.00;;;;;;5045018;28;20041;-82
2023/06/21 06:15:23;;;;;;;26.17;23.70;;;28.80;94.50;;;;;;5044554;28;20136;-80
2023/06/21 06:17:48;;;;;;;26.35;23.65;;;29.50;93.20;;;;;;5044183;28;20041;-79
2023/06/21 06:20:14;;;;;;;25.65;23.13;;;30.00;91.40;;;;;;5043566;28;20720;-79
2023/06/21 06:22:40;;;;;;;23.23;21.00;;;30.40;89.90;;;;;;5043215;28;20041;-79
2023/06/21 06:25:07;;;;;;;21.90;19.65;;;29.20;89.60;;;;;;5036820;28;20041;-79
2023/06/21 06:27:33;;;;;;;22.85;20.75;;;29.50;88.30;;;;;;5037540;28;20089;-78
2023/06/21 06:29:58;;;;;;;22.63;20.48;;;30.00;87.10;;;;;;5027191;28;20700;-78
2023/06/21 06:32:26;;;;;;;22.40;20.17;;;29.40;87.00;;;;;;5040539;28;20109;-81
2023/06/21 06:34:54;;;;;;;20.55;18.55;;;28.70;88.50;;;;;;5026993;28;20132;-78
2023/06/21 06:37:21;;;;;;;21.77;19.70;;;29.50;86.80;;;;;;5040286;28;20057;-82
2023/06/21 06:39:47;;;;;;;21.77;19.65;;;29.10;86.30;;;;;;5048691;28;20114;-81
2023/06/21 06:42:13;;;;;;;19.17;17.35;;;28.90;85.60;;;;;;5046675;28;20055;-81
2023/06/21 06:44:41;;;;;;;19.02;17.02;;;29.60;85.00;;;;;;5024142;28;20482;-81
2023/06/21 06:47:07;;;;;;;20.02;16.25;;;30.10;83.80;;;;;;5041188;28;20206;-81
2023/06/21 06:49:34;;;;;;;17.30;15.70;;;30.00;83.00;;;;;;5045498;28;20864;-80
2023/06/21 06:52:00;;;;;;;16.45;14.75;;;30.90;80.40;;;;;;5044352;28;20083;-85
2023/06/21 06:54:25;;;;;;;15.73;14.23;;;31.30;78.20;;;;;;5042378;28;20925;-84
2023/06/21 06:56:51;;;;;;;16.08;14.40;;;32.50;77.00;;;;;;5042748;28;20048;-81
2023/06/21 06:59:17;;;;;;;15.57;14.07;;;32.70;74.10;;;;;;5044373;28;20144;-82
2023/06/21 07:01:43;;;;;;;16.35;14.65;;;32.50;74.00;;;;;;5042261;28;20068;-84
2023/06/21 07:04:08;;;;;;;13.95;12.52;;;33.30;72.90;;;;;;5022303;28;20048;-81
2023/06/21 07:06:34;;;;;;;12.57;11.15;;;33.60;71.30;;;;;;5040890;28;20049;-80
2023/06/21 07:09:02;;;;;;;14.05;12.45;;;34.20;69.20;;;;;;5034490;28;20053;-81
2023/06/21 07:11:29;;;;;;;12.20;10.35;;;34.30;67.50;;;;;;5031965;28;20061;-81
2023/06/21 07:13:54;;;;;;;11.10;10.02;;;34.60;66.00;;;;;;5038719;28;20667;-79
2023/06/21 07:16:20;;;;;;;10.65;9.65;;;35.20;65.30;;;;;;5038054;28;20044;-82
2023/06/21 07:18:46;;;;;;;12.15;8.70;;;35.90;63.90;;;;;;5043038;28;20593;-85
2023/06/21 07:21:13;;;;;;;9.30;8.07;;;36.20;62.40;;;;;;5041564;28;20048;-81
2023/06/21 07:23:39;;;;;;;9.25;7.47;;;36.60;62.00;;;;;;5015527;28;20076;-81
2023/06/21 07:26:05;;;;;;;8.75;6.22;;;36.90;61.20;;;;;;5036722;28;20131;-80
2023/06/21 07:28:31;;;;;;;8.57;6.30;;;37.10;59.50;;;;;;5039510;28;20483;-80
2023/06/21 07:30:59;;;;;;;8.23;6.30;;;37.30;58.20;;;;;;5042759;28;20045;-82
2023/06/21 07:33:25;;;;;;;11.77;6.32;;;37.50;57.30;;;;;;5038470;28;20053;-84
2023/06/21 07:35:50;;;;;;;7.80;6.70;;;37.50;56.70;;;;;;5042205;28;20521;-76
2023/06/21 07:38:16;;;;;;;6.75;5.70;;;37.60;56.00;;;;;;5037138;28;20445;-79
2023/06/21 07:40:42;;;;;;;7.40;5.75;;;37.60;56.60;;;;;;5041926;28;20048;-80
2023/06/21 07:43:08;;;;;;;6.70;5.10;;;37.60;56.30;;;;;;5041473;28;20548;-77
2023/06/21 07:45:34;;;;;;;6.75;3.92;;;37.60;56.00;;;;;;5041475;28;20076;-83
2023/06/21 07:48:00;;;;;;;6.00;4.47;;;37.60;55.80;;;;;;5041174;28;20048;-79
2023/06/21 07:50:27;;;;;;;5.00;4.05;;;38.00;55.70;;;;;;5042542;28;20571;-79
2023/06/21 07:52:53;;;;;;;5.25;3.55;;;38.50;55.40;;;;;;5041125;28;20107;-79
2023/06/21 07:55:19;;;;;;;6.07;4.00;;;39.00;53.30;;;;;;5042532;28;20044;-83
2023/06/21 07:57:45;;;;;;;5.88;5.18;;;39.30;52.30;;;;;;5041828;28;20052;-79
2023/06/21 08:00:11;;;;;;;5.95;4.32;;;39.50;52.20;;;;;;5041044;28;20394;-80
2023/06/21 08:02:38;;;;;;;6.53;4.50;;;39.70;51.10;;;;;;5041646;28;20083;-76
2023/06/21 08:05:08;;;;;;;6.60;4.07;;;39.50;50.80;;;;;;5038478;28;20501;-77
2023/06/21 08:07:33;;;;;;;7.03;4.68;;;39.20;50.60;;;;;;5041843;28;20098;-78
2023/06/21 08:09:59;;;;;;;6.57;4.00;;;39.40;50.70;;;;;;5040731;28;20057;-79
2023/06/21 08:12:25;;;;;;;3.83;3.30;;;39.80;50.20;;;;;;5036446;28;20057;-78
2023/06/21 08:14:51;;;;;;;6.28;3.92;;;39.80;49.80;;;;;;5016270;28;20053;-80
2023/06/21 08:17:17;;;;;;;4.55;3.85;;;39.80;49.30;;;;;;5041344;28;20040;-78
2023/06/21 08:19:42;;;;;;;5.53;4.30;;;39.80;49.10;;;;;;5024842;28;20181;-80
2023/06/21 08:22:08;;;;;;;7.50;4.00;;;39.70;49.20;;;;;;5042722;28;20452;-78
2023/06/21 08:24:35;;;;;;;7.45;4.40;;;39.60;48.70;;;;;;5043400;28;20073;-78
2023/06/21 08:27:02;;;;;;;6.93;3.75;;;39.50;49.20;;;;;;5046008;28;20102;-77
2023/06/21 08:29:27;;;;;;;10.32;3.67;;;39.60;49.50;;;;;;5024487;28;20076;-76
2023/06/21 08:31:53;;;;;;;4.93;3.80;;;39.80;49.40;;;;;;5043795;28;20496;-76
2023/06/21 08:34:19;;;;;;;4.53;3.53;;;39.60;49.00;;;;;;5034925;28;20053;-78
2023/06/21 08:36:46;;;;;;;6.55;3.63;;;39.60;49.10;;;;;;5041158;28;20044;-72
2023/06/21 08:39:12;;;;;;;6.05;4.18;;;39.80;49.20;;;;;;5022916;28;20128;-76
2023/06/21 08:41:39;;;;;;;4.22;3.20;;;39.20;48.60;;;;;;5045698;28;20045;-74
2023/06/21 08:44:09;;;;;;;6.05;3.60;;;38.50;49.20;;;;;;5029908;28;20144;-82
2023/06/21 08:46:37;;;;;;;5.75;3.45;;;37.90;50.00;;;;;;5021760;28;20053;-76
2023/06/21 08:49:08;;;;;;;5.57;3.78;;;37.60;50.20;;;;;;5014397;28;20041;-76
2023/06/21 08:51:38;;;;;;;4.32;3.10;;;36.60;50.40;;;;;;5012233;28;20450;-76
2023/06/21 08:54:09;;;;;;;4.97;3.33;;;35.40;51.40;;;;;;5032882;28;20080;-75
2023/06/21 08:57:09;;;;;;;4.22;3.03;;;34.30;52.80;;;;;;5028518;28;20077;-77
2023/06/21 08:59:41;;;;;;;5.32;3.08;;;34.40;54.70;;;;;;5028125;28;20040;-76
2023/06/21 09:02:45;;;;;;;4.75;3.65;;;34.80;53.70;;;;;;5027056;28;20048;-75
2023/06/21 09:05:44;;;;;;;4.47;3.03;;;35.10;53.10;;;;;;4974503;28;20142;-79
2023/06/21 09:08:10;;;;;;;4.65;2.65;;;35.50;53.70;;;;;;4998730;28;20407;-73
2023/06/21 09:10:40;;;;;;;5.25;2.35;;;35.80;52.10;;;;;;5031969;28;20061;-79
2023/06/21 09:13:08;;;;;;;4.40;2.33;;;35.60;53.00;;;;;;5011637;28;20446;-82
2023/06/21 09:15:37;;;;;;;4.97;2.33;;;35.60;53.30;;;;;;5000658;28;20064;-77
2023/06/21 09:18:06;;;;;;;4.05;2.65;;;35.30;54.00;;;;;;5016749;28;20061;-83
2023/06/21 09:20:35;;;;;;;8.63;2.78;;;35.00;53.90;;;;;;4997593;28;20060;-79
2023/06/21 09:23:09;;;;;;;4.47;2.83;;;35.40;54.80;;;;;;4999939;28;20065;-77
2023/06/21 09:25:42;;;;;;;2.97;2.10;;;36.40;53.40;;;;;;5017177;28;20058;-78
2023/06/21 09:28:13;;;;;;;3.88;1.85;;;37.10;53.10;;;;;;5022169;28;20060;-75
2023/06/21 09:30:45;;;;;;;4.95;2.33;;;37.80;51.80;;;;;;5000500;28;20076;-72
2023/06/21 09:33:12;;;;;;;;;;;37.80;51.00;;;;;;5018023;28;20338;-72
2023/06/21 09:35:39;;;;;;;3.20;1.83;;;37.00;50.80;;;;;;5006903;28;20439;-78
2023/06/21 09:38:38;;;;;;;3.10;2.10;;;36.80;51.90;;;;;;5003720;28;20055;-82
2023/06/21 09:41:07;;;;;;;2.70;1.88;;;36.90;51.40;;;;;;5010263;28;20049;-74
2023/06/21 09:43:44;;;;;;;3.28;2.22;;;37.30;51.90;;;;;;5022392;28;20056;-72
2023/06/21 09:46:16;;;;;;;4.07;1.80;;;37.90;52.20;;;;;;5003634;28;20888;-74
2023/06/21 09:48:44;;;;;;;2.72;1.52;;;38.70;51.80;;;;;;5017595;28;20056;-75
2023/06/21 09:51:12;;;;;;;2.40;1.33;;;39.20;50.10;;;;;;5019359;28;20139;-80
2023/06/21 09:53:43;;;;;;;4.03;1.77;;;39.60;49.10;;;;;;5019224;28;20122;-75
2023/06/21 09:56:12;;;;;;;2.50;1.20;;;39.00;48.00;;;;;;5020099;28;20145;-77
2023/06/21 09:58:43;;;;;;;2.03;0.95;;;38.00;49.40;;;;;;5024497;28;20053;-73
2023/06/21 10:01:18;;;;;;;2.97;1.27;;;38.10;50.70;;;;;;5009339;28;20068;-74
2023/06/21 10:03:45;;;;;;;1.90;1.20;;;38.50;50.50;;;;;;5025534;28;20444;-81
2023/06/21 10:06:16;;;;;;;3.60;1.02;;;39.30;48.80;;;;;;5043639;28;20048;-75
2023/06/21 10:08:44;;;;;;;2.95;1.23;;;39.50;47.70;;;;;;5007218;28;20828;-79
2023/06/21 10:11:09;;;;;;;2.10;0.80;;;39.70;48.40;;;;;;5040159;28;20167;-74
2023/06/21 10:13:39;;;;;;;3.83;1.20;;;39.30;48.50;;;;;;5042044;28;20762;-77
2023/06/21 10:16:07;;;;;;;2.80;0.70;;;39.30;48.40;;;;;;5042198;28;20140;-76
2023/06/21 10:18:35;;;;;;;3.38;0.85;;;39.30;48.10;;;;;;5007901;28;20045;-74
2023/06/21 10:21:06;;;;;;;2.72;0.80;;;38.80;47.60;;;;;;5029732;28;20055;-79
2023/06/21 10:23:40;;;;;;;2.70;1.00;;;37.60;47.70;;;;;;5024662;28;20064;-72
2023/06/21 10:26:11;;;;;;;3.45;1.23;;;36.60;47.80;;;;;;5028869;28;20041;-78
2023/06/21 10:28:54;;;;;;;2.90;1.17;;;35.60;49.60;;;;;;5043276;28;20057;-73
2023/06/21 10:31:22;;;;;;;1.90;0.80;;;35.30;51.00;;;;;;5040455;28;20048;-76
2023/06/21 10:33:50;;;;;;;2.08;0.85;;;35.10;51.00;;;;;;5040182;28;20499;-73
2023/06/21 10:36:25;;;;;;;3.05;0.90;;;34.80;51.10;;;;;;5041106;28;20053;-74
2023/06/21 10:38:53;;;;;;;2.78;0.75;;;34.10;51.70;;;;;;5034361;28;20124;-73
2023/06/21 10:41:20;;;;;;;2.15;0.95;;;34.20;52.90;;;;;;5042197;28;20152;-77
2023/06/21 10:43:46;;;;;;;3.95;0.70;;;34.50;52.60;;;;;;5042182;28;20045;-75
2023/06/21 10:46:12;;;;;;;2.50;0.70;;;35.00;53.40;;;;;;5042593;28;20535;-75
2023/06/21 10:48:39;;;;;;;2.95;1.15;;;35.10;52.20;;;;;;5040029;28;20056;-72
2023/06/21 10:51:06;;;;;;;2.33;0.80;;;35.10;51.00;;;;;;5043549;28;20059;-75
2023/06/21 10:53:33;;;;;;;4.47;1.58;;;34.70;51.20;;;;;;5044157;28;20487;-73
2023/06/21 10:56:01;;;;;;;3.22;0.68;;;34.10;52.10;;;;;;5044890;28;20048;-78
2023/06/21 10:58:29;;;;;;;1.98;1.05;;;33.60;52.70;;;;;;5044240;28;20049;-79
2023/06/21 11:00:57;;;;;;;2.75;0.93;;;33.10;52.50;;;;;;5044671;28;20048;-74
2023/06/21 11:03:25;;;;;;;5.93;1.77;;;32.80;54.00;;;;;;5037846;28;20085;-76
2023/06/21 11:06:26;;;;;;;1.63;0.90;;;32.40;54.40;;;;;;5025082;28;20133;-78
2023/06/21 11:08:53;;;;;;;2.47;0.70;;;31.90;54.80;;;;;;5040884;28;20052;-77
2023/06/21 11:11:32;;;;;;;3.80;0.90;;;31.80;56.40;;;;;;5042782;28;20416;-75
2023/06/21 11:14:03;;;;;;;2.13;0.70;;;31.20;58.30;;;;;;5042991;28;20059;-71
2023/06/21 11:16:39;;;;;;;2.53;0.60;;;31.00;58.20;;;;;;5044589;28;20176;-78
2023/06/21 11:19:13;;;;;;;1.65;0.45;;;30.90;58.10;;;;;;5042992;28;20520;-80
2023/06/21 11:21:49;;;;;;;1.65;0.65;;;30.70;57.50;;;;;;5034999;28;20053;-70
2023/06/21 11:24:20;;;;;;;3.08;0.80;;;30.30;58.40;;;;;;5038037;28;20410;-73
2023/06/21 11:27:02;;;;;;;2.30;0.90;;;30.20;60.00;;;;;;5046229;28;20045;-74
2023/06/21 11:29:37;;;;;;;4.82;1.25;;;31.30;61.20;;;;;;5037432;28;20060;-82
2023/06/21 11:32:16;;;;;;;2.08;0.90;;;30.00;61.80;;;;;;5044021;28;20072;-75
2023/06/21 11:34:56;;;;;;;2.20;1.08;;;29.90;62.10;;;;;;5041714;28;20512;-81
2023/06/21 11:37:42;;;;;;;1.92;0.70;;;29.80;63.00;;;;;;5040706;28;20152;-76
2023/06/21 11:40:18;;;;;;;2.05;0.70;;;29.70;61.30;;;;;;5042415;28;20060;-78
2023/06/21 11:42:48;;;;;;;2.25;1.25;;;29.80;59.30;;;;;;5035985;28;20052;-76
2023/06/21 11:45:21;;;;;;;1.83;1.20;;;29.70;59.70;;;;;;5039341;28;20127;-76
2023/06/21 11:48:01;;;;;;;2.05;0.63;;;29.70;60.00;;;;;;5038579;28;20478;-79
2023/06/21 11:50:35;;;;;;;1.98;0.75;;;29.70;61.20;;;;;;5037297;28;20064;-70
2023/06/21 11:53:23;;;;;;;2.67;0.73;;;29.80;62.30;;;;;;5041931;28;20045;-76
2023/06/21 11:55:54;;;;;;;1.55;0.85;;;29.70;63.10;;;;;;5038496;28;20105;-72
2023/06/21 11:58:20;;;;;;;7.03;2.05;;;29.70;61.80;;;;;;5037742;28;20057;-70
2023/06/21 12:00:47;;;;;;;1.75;0.70;;;29.70;61.80;;;;;;5039584;28;20457;-77
2023/06/21 12:03:13;;;;;;;2.58;0.93;;;29.80;62.80;;;;;;5047933;28;20135;-74
2023/06/21 12:05:51;;;;;;;2.42;1.23;;;29.90;62.40;;;;;;5040973;28;20081;-76
2023/06/21 12:08:19;;;;;;;2.53;1.05;;;30.00;60.30;;;;;;5041245;28;20071;-75
2023/06/21 12:10:46;;;;;;;7.45;1.98;;;30.00;59.60;;;;;;5043215;28;20056;-73
2023/06/21 12:13:14;;;;;;;3.25;1.30;;;30.20;59.10;;;;;;5041011;28;20626;-79
2023/06/21 12:15:51;;;;;;;3.03;1.10;;;30.10;59.20;;;;;;5045529;28;20063;-75
2023/06/21 12:18:16;;;;;;;4.40;1.50;;;28.00;58.30;;;;;;5039663;28;20064;-78
2023/06/21 12:20:42;;;;;;;3.45;0.98;;;30.10;59.20;;;;;;5041914;28;20049;-79
2023/06/21 12:23:09;;;;;;;1.73;0.70;;;29.90;58.80;;;;;;5041441;28;20049;-74
2023/06/21 12:25:46;;;;;;;1.23;0.55;;;29.80;57.90;;;;;;5041415;28;20045;-77
2023/06/21 12:28:14;;;;;;;1.85;0.90;;;29.60;57.70;;;;;;5040558;28;20052;-79
2023/06/21 12:30:48;;;;;;;3.38;0.60;;;29.50;58.20;;;;;;5044604;28;20054;-75
2023/06/21 12:33:14;;;;;;;2.35;0.70;;;29.30;59.20;;;;;;5014961;28;20506;-75
2023/06/21 12:35:41;;;;;;;2.15;0.80;;;29.10;60.40;;;;;;5039185;28;20053;-75
2023/06/21 12:38:25;;;;;;;1.75;0.90;;;29.00;61.10;;;;;;5041194;28;20310;-75
2023/06/21 12:41:02;;;;;;;2.20;0.90;;;29.00;63.20;;;;;;5019900;28;20052;-77
2023/06/21 12:43:37;;;;;;;2.15;0.85;;;29.10;63.10;;;;;;5024636;28;20109;-74